createdAt,value
2023-04-30T00:01:15.369Z,28.08
2023-04-30T00:03:42.780Z,21.98
2023-04-30T00:06:10.101Z,21.95
2023-04-30T00:08:37.372Z,28.80
2023-04-30T00:11:04.806Z,26.17
2023-04-30T00:13:32.030Z,25.88
2023-04-30T00:15:59.325Z,32.03
2023-04-30T00:18:26.639Z,25.83
2023-04-30T00:20:53.901Z,26.27
2023-04-30T00:23:21.208Z,25.45
2023-04-30T00:25:48.452Z,23.50
2023-04-30T00:28:15.699Z,25.65
2023-04-30T00:30:42.967Z,23.70
2023-04-30T00:33:10.444Z,26.20
2023-04-30T00:35:37.767Z,25.52
2023-04-30T00:38:05.865Z,23.17
2023-04-30T00:40:35.026Z,26.35
2023-04-30T00:43:02.514Z,27.65
2023-04-30T00:45:31.290Z,29.50
2023-04-30T00:47:58.651Z,27.75
2023-04-30T00:50:26.041Z,24.92
2023-04-30T00:52:53.487Z,27.13
2023-04-30T00:55:20.892Z,30.52
2023-04-30T00:57:48.519Z,30.65
2023-04-30T01:00:15.962Z,30.80
2023-04-30T01:02:43.349Z,29.35
2023-04-30T01:05:10.991Z,27.48
2023-04-30T01:07:39.476Z,23.58
2023-04-30T01:10:07.377Z,29.80
2023-04-30T01:12:50.014Z,30.73
2023-04-30T01:15:24.590Z,29.17
2023-04-30T01:18:07.667Z,26.77
2023-04-30T01:20:35.517Z,28.98
2023-04-30T01:23:20.341Z,27.45
2023-04-30T01:26:06.513Z,28.13
2023-04-30T01:28:36.685Z,28.08
2023-04-30T01:31:04.063Z,31.50
2023-04-30T01:33:32.133Z,26.85
2023-04-30T01:36:18.299Z,29.17
2023-04-30T01:38:45.687Z,27.70
2023-04-30T01:41:31.450Z,30.00
2023-04-30T01:44:18.399Z,28.35
2023-04-30T01:46:48.501Z,29.27
2023-04-30T01:49:27.764Z,28.77
2023-04-30T01:54:49.946Z,28.75
2023-04-30T01:57:20.957Z,29.50
2023-04-30T01:59:48.308Z,31.00
2023-04-30T02:02:15.980Z,27.60
2023-04-30T02:04:43.195Z,29.05
2023-04-30T02:07:10.723Z,28.45
2023-04-30T02:09:37.973Z,30.58
2023-04-30T02:12:05.764Z,28.15
2023-04-30T02:14:32.992Z,30.83
2023-04-30T02:17:00.286Z,26.58
2023-04-30T02:19:27.849Z,30.02
2023-04-30T02:21:55.062Z,29.73
2023-04-30T02:24:22.418Z,27.60
2023-04-30T02:26:49.654Z,23.05
2023-04-30T02:29:17.405Z,23.65
2023-04-30T02:31:44.890Z,22.83
2023-04-30T02:34:12.174Z,26.48
2023-04-30T02:36:39.439Z,27.02
2023-04-30T02:39:06.652Z,25.25
2023-04-30T02:41:33.850Z,30.00
2023-04-30T02:44:01.332Z,25.92
2023-04-30T02:46:29.243Z,26.20
2023-04-30T02:48:56.640Z,28.10
2023-04-30T02:51:23.929Z,28.45
2023-04-30T02:53:51.900Z,27.50
2023-04-30T02:56:19.096Z,25.73
2023-04-30T02:58:46.473Z,26.23
2023-04-30T03:01:14.456Z,26.48
2023-04-30T03:03:41.946Z,28.35
2023-04-30T03:06:09.325Z,22.63
2023-04-30T03:08:36.573Z,25.08
2023-04-30T03:11:03.808Z,27.75
2023-04-30T03:13:31.105Z,29.13
2023-04-30T03:16:01.879Z,29.77
2023-04-30T03:18:29.640Z,26.90
2023-04-30T03:20:57.264Z,28.40
2023-04-30T03:23:24.778Z,28.58
2023-04-30T03:25:52.242Z,29.55
2023-04-30T03:28:19.831Z,26.83
2023-04-30T03:30:47.422Z,25.85
2023-04-30T03:33:14.668Z,27.60
2023-04-30T03:35:41.984Z,28.38
2023-04-30T03:38:09.296Z,24.77
2023-04-30T03:40:36.551Z,23.95
2023-04-30T03:43:03.833Z,27.77
2023-04-30T03:45:31.282Z,30.38
2023-04-30T03:47:58.721Z,34.97
2023-04-30T03:50:26.243Z,26.67
2023-04-30T03:52:53.503Z,26.48
2023-04-30T03:55:20.800Z,31.67
2023-04-30T03:57:48.144Z,28.50
2023-04-30T04:00:15.637Z,26.05
2023-04-30T04:02:48.116Z,26.23
2023-04-30T04:05:15.896Z,29.38
2023-04-30T04:07:45.247Z,27.67
2023-04-30T04:10:12.957Z,32.63
2023-04-30T04:12:40.226Z,29.70
2023-04-30T04:15:07.836Z,28.27
2023-04-30T04:17:35.386Z,28.15
2023-04-30T04:20:02.711Z,26.67
2023-04-30T04:22:30.105Z,27.35
2023-04-30T04:24:57.457Z,25.02
2023-04-30T04:27:25.238Z,27.38
2023-04-30T04:29:52.938Z,25.15
2023-04-30T04:32:22.717Z,27.17
2023-04-30T04:34:50.402Z,23.10
2023-04-30T04:37:17.737Z,31.67
2023-04-30T04:39:45.155Z,27.98
2023-04-30T04:42:13.280Z,27.33
2023-04-30T04:44:41.355Z,27.50
2023-04-30T04:47:10.102Z,24.45
2023-04-30T04:49:37.304Z,19.00
2023-04-30T04:52:05.409Z,29.95
2023-04-30T04:54:32.640Z,25.27
2023-04-30T04:56:59.878Z,28.75
2023-04-30T04:59:27.269Z,26.73
2023-04-30T05:01:56.378Z,23.10
2023-04-30T05:04:23.707Z,22.98
2023-04-30T05:06:50.984Z,24.70
2023-04-30T05:09:18.378Z,26.00
2023-04-30T05:11:46.204Z,25.15
2023-04-30T05:14:13.455Z,25.80
2023-04-30T05:16:40.794Z,20.02
2023-04-30T05:19:09.735Z,22.02
2023-04-30T05:21:37.002Z,23.15
2023-04-30T05:24:04.346Z,26.50
2023-04-30T05:26:31.520Z,22.38
2023-04-30T05:28:58.740Z,21.70
2023-04-30T05:31:26.039Z,22.48
2023-04-30T05:33:53.280Z,23.67
2023-04-30T05:36:20.664Z,21.02
2023-04-30T05:38:47.882Z,20.45
2023-04-30T05:41:15.112Z,21.42
2023-04-30T05:43:42.361Z,22.52
2023-04-30T05:46:09.625Z,18.23
2023-04-30T05:48:36.944Z,15.27
2023-04-30T05:51:05.662Z,19.20
2023-04-30T05:53:32.910Z,17.05
2023-04-30T05:56:00.246Z,20.15
2023-04-30T05:58:27.491Z,18.20
2023-04-30T06:00:54.760Z,18.35
2023-04-30T06:03:22.652Z,17.50
2023-04-30T06:05:50.166Z,19.58
2023-04-30T06:08:17.392Z,18.40
2023-04-30T06:10:44.806Z,17.48
2023-04-30T06:13:12.059Z,16.50
2023-04-30T06:15:39.336Z,17.98
2023-04-30T06:18:06.797Z,16.55
2023-04-30T06:20:34.256Z,16.60
2023-04-30T06:23:03.818Z,14.52
2023-04-30T06:25:31.083Z,14.52
2023-04-30T06:27:58.316Z,13.52
2023-04-30T06:30:25.572Z,14.23
2023-04-30T06:32:52.894Z,15.95
2023-04-30T06:35:20.237Z,15.10
2023-04-30T06:37:47.501Z,12.25
2023-04-30T06:40:14.814Z,14.65
2023-04-30T06:42:42.077Z,15.65
2023-04-30T06:45:09.629Z,13.90
2023-04-30T06:47:38.152Z,13.02
2023-04-30T06:50:05.715Z,9.40
2023-04-30T06:52:32.967Z,12.50
2023-04-30T06:55:00.956Z,11.32
2023-04-30T06:57:28.370Z,10.88
2023-04-30T06:59:57.075Z,12.80
2023-04-30T07:02:24.559Z,9.98
2023-04-30T07:04:51.848Z,12.48
2023-04-30T07:07:19.142Z,16.30
2023-04-30T07:09:46.383Z,11.98
2023-04-30T07:12:13.760Z,9.90
2023-04-30T07:14:41.113Z,11.13
2023-04-30T07:17:08.340Z,12.75
2023-04-30T07:19:35.600Z,11.27
2023-04-30T07:22:03.017Z,11.00
2023-04-30T07:24:30.280Z,11.27
2023-04-30T07:26:59.030Z,9.82
2023-04-30T07:29:26.290Z,11.45
2023-04-30T07:31:53.600Z,9.85
2023-04-30T07:34:20.961Z,9.52
2023-04-30T07:36:49.170Z,12.63
2023-04-30T07:39:17.820Z,11.93
2023-04-30T07:41:45.101Z,12.65
2023-04-30T07:44:12.342Z,10.00
2023-04-30T07:46:39.747Z,11.88
2023-04-30T07:49:07.134Z,11.68
2023-04-30T07:51:34.431Z,11.43
2023-04-30T07:54:01.845Z,12.82
2023-04-30T07:56:29.053Z,10.77
2023-04-30T07:58:56.362Z,11.43
2023-04-30T08:01:23.602Z,8.93
2023-04-30T08:03:51.030Z,12.15
2023-04-30T08:06:18.321Z,10.00
2023-04-30T08:08:45.896Z,11.73
2023-04-30T08:11:13.183Z,9.10
2023-04-30T08:13:40.605Z,8.35
2023-04-30T08:16:08.345Z,8.95
2023-04-30T08:18:35.707Z,7.90
2023-04-30T08:21:02.932Z,11.35
2023-04-30T08:23:30.258Z,10.60
2023-04-30T08:25:57.490Z,11.80
2023-04-30T08:28:24.681Z,9.18
2023-04-30T08:30:52.048Z,9.18
2023-04-30T08:33:19.315Z,10.40
2023-04-30T08:35:46.638Z,10.52
2023-04-30T08:38:13.948Z,9.90
2023-04-30T08:43:12.962Z,6.85
2023-04-30T08:45:41.753Z,8.93
2023-04-30T08:48:15.722Z,7.53
2023-04-30T08:50:43.309Z,9.25
2023-04-30T08:53:11.315Z,8.55
2023-04-30T08:55:39.696Z,6.68
2023-04-30T08:58:07.461Z,8.00
2023-04-30T09:00:36.398Z,8.18
2023-04-30T09:03:03.833Z,6.10
2023-04-30T09:05:31.308Z,7.55
2023-04-30T09:08:03.605Z,7.40
2023-04-30T09:10:35.040Z,8.10
2023-04-30T09:13:06.387Z,6.38
2023-04-30T09:15:34.515Z,6.70
2023-04-30T09:18:11.602Z,5.50
2023-04-30T09:20:39.202Z,4.28
2023-04-30T09:23:07.854Z,7.85
2023-04-30T09:25:42.050Z,6.05
2023-04-30T09:28:10.408Z,5.78
2023-04-30T09:30:37.900Z,5.63
2023-04-30T09:33:05.752Z,6.78
2023-04-30T09:35:34.090Z,6.28
2023-04-30T09:38:04.835Z,7.68
2023-04-30T09:40:40.345Z,7.55
2023-04-30T09:43:07.847Z,8.80
2023-04-30T09:45:47.308Z,7.03
2023-04-30T09:48:18.426Z,5.75
2023-04-30T09:50:46.232Z,10.65
2023-04-30T09:53:14.359Z,7.05
2023-04-30T09:55:45.709Z,6.20
2023-04-30T09:58:13.624Z,6.47
2023-04-30T10:00:41.204Z,6.90
2023-04-30T10:03:13.454Z,6.80
2023-04-30T10:05:47.035Z,5.38
2023-04-30T10:08:22.688Z,7.10
2023-04-30T10:10:52.037Z,6.18
2023-04-30T10:13:20.533Z,6.38
2023-04-30T10:15:50.698Z,5.13
2023-04-30T10:18:22.959Z,8.93
2023-04-30T10:20:51.616Z,8.63
2023-04-30T10:23:18.910Z,6.95
2023-04-30T10:25:46.265Z,7.18
2023-04-30T10:28:13.790Z,5.78
2023-04-30T10:30:43.462Z,6.97
2023-04-30T10:33:19.433Z,5.05
2023-04-30T10:35:55.610Z,7.07
2023-04-30T10:38:24.958Z,5.65
2023-04-30T10:40:57.318Z,6.93
2023-04-30T10:43:25.129Z,6.68
2023-04-30T10:45:52.685Z,6.65
2023-04-30T10:48:26.852Z,5.43
2023-04-30T10:50:56.777Z,6.63
2023-04-30T10:53:26.020Z,7.88
2023-04-30T10:56:00.623Z,7.78
2023-04-30T10:58:30.659Z,5.57
2023-04-30T11:01:19.730Z,5.85
2023-04-30T11:04:06.540Z,5.88
2023-04-30T11:06:53.904Z,6.95
2023-04-30T11:09:25.232Z,5.70
2023-04-30T11:12:02.961Z,5.95
2023-04-30T11:14:32.461Z,6.03
2023-04-30T11:17:02.988Z,5.95
2023-04-30T11:19:30.549Z,7.50
2023-04-30T11:22:07.251Z,7.95
2023-04-30T11:24:53.351Z,6.10
2023-04-30T11:27:21.991Z,5.93
2023-04-30T11:29:50.566Z,6.35
2023-04-30T11:32:18.733Z,8.65
2023-04-30T11:34:46.176Z,5.68
2023-04-30T11:37:14.891Z,6.55
2023-04-30T11:39:43.661Z,5.88
2023-04-30T11:42:11.231Z,6.70
2023-04-30T11:44:38.752Z,6.15
2023-04-30T11:47:06.547Z,6.63
2023-04-30T11:49:34.068Z,6.05
2023-04-30T11:52:01.299Z,4.65
2023-04-30T11:54:31.831Z,5.88
2023-04-30T11:57:04.114Z,5.28
2023-04-30T11:59:32.065Z,5.20
2023-04-30T12:01:59.535Z,6.05
2023-04-30T12:04:27.422Z,7.70
2023-04-30T12:06:54.775Z,6.05
2023-04-30T12:09:22.002Z,6.00
2023-04-30T12:11:49.330Z,6.20
2023-04-30T12:14:16.590Z,5.97
2023-04-30T12:16:51.133Z,7.07
2023-04-30T12:19:19.155Z,5.57
2023-04-30T12:21:47.409Z,5.50
2023-04-30T12:24:18.450Z,6.65
2023-04-30T12:26:46.135Z,5.65
2023-04-30T12:29:17.404Z,6.50
2023-04-30T12:31:45.786Z,5.22
2023-04-30T12:34:13.746Z,5.50
2023-04-30T12:36:44.527Z,5.13
2023-04-30T12:39:16.417Z,7.55
2023-04-30T12:41:48.508Z,6.82
2023-04-30T12:44:19.927Z,5.18
2023-04-30T12:46:50.870Z,5.30
2023-04-30T12:49:25.248Z,6.63
2023-04-30T12:51:53.038Z,6.55
2023-04-30T12:54:30.282Z,5.15
2023-04-30T12:57:04.793Z,6.20
2023-04-30T12:59:32.884Z,4.25
2023-04-30T13:02:10.477Z,4.00
2023-04-30T13:04:38.120Z,4.80
2023-04-30T13:07:05.722Z,6.00
2023-04-30T13:09:36.761Z,5.80
2023-04-30T13:12:04.644Z,4.45
2023-04-30T13:14:32.845Z,5.18
2023-04-30T13:17:01.466Z,7.63
2023-04-30T13:19:30.317Z,5.07
2023-04-30T13:24:25.053Z,5.78
2023-04-30T13:26:52.344Z,4.97
2023-04-30T13:29:22.221Z,8.70
2023-04-30T13:31:49.956Z,4.43
2023-04-30T13:34:17.328Z,8.73
2023-04-30T13:36:46.679Z,5.72
2023-04-30T13:39:13.984Z,5.45
2023-04-30T13:41:41.217Z,6.57
2023-04-30T13:44:08.558Z,5.75
2023-04-30T13:46:36.117Z,5.43
2023-04-30T13:49:03.658Z,5.30
2023-04-30T13:51:31.456Z,5.53
2023-04-30T13:53:58.764Z,7.50
2023-04-30T13:56:26.330Z,6.22
2023-04-30T13:58:53.559Z,4.88
2023-04-30T14:01:20.908Z,5.50
2023-04-30T14:03:48.409Z,10.48
2023-04-30T14:06:15.903Z,5.35
2023-04-30T14:08:43.172Z,4.40
2023-04-30T14:11:11.049Z,4.95
2023-04-30T14:13:38.318Z,6.35
2023-04-30T14:16:05.727Z,6.70
2023-04-30T14:18:33.047Z,4.78
2023-04-30T14:21:00.425Z,4.97
2023-04-30T14:23:29.036Z,5.43
2023-04-30T14:25:56.485Z,5.47
2023-04-30T14:28:23.667Z,5.50
2023-04-30T14:30:51.049Z,4.60
2023-04-30T14:33:18.324Z,3.92
2023-04-30T14:35:46.350Z,4.15
2023-04-30T14:38:14.241Z,9.40
2023-04-30T14:40:41.521Z,5.40
2023-04-30T14:43:08.744Z,5.85
2023-04-30T14:45:36.169Z,4.03
2023-04-30T14:48:05.614Z,3.25
2023-04-30T14:50:33.222Z,4.68
2023-04-30T14:53:00.533Z,4.03
2023-04-30T14:55:27.787Z,4.65
2023-04-30T14:57:55.477Z,4.72
2023-04-30T15:00:22.685Z,3.90
2023-04-30T15:02:49.996Z,4.28
2023-04-30T15:05:17.328Z,6.45
2023-04-30T15:07:44.663Z,4.18
2023-04-30T15:10:12.063Z,2.78
2023-04-30T15:12:39.683Z,4.57
2023-04-30T15:15:07.921Z,4.60
2023-04-30T15:17:36.988Z,5.45
2023-04-30T15:20:04.914Z,9.18
2023-04-30T15:22:32.282Z,5.72
2023-04-30T15:24:59.812Z,2.95
2023-04-30T15:27:31.849Z,6.07
2023-04-30T15:30:00.534Z,4.38
2023-04-30T15:32:28.095Z,5.32
2023-04-30T15:34:55.390Z,3.38
2023-04-30T15:37:22.593Z,6.65
2023-04-30T15:39:50.061Z,5.68
2023-04-30T15:42:17.379Z,4.97
2023-04-30T15:44:44.590Z,5.38
2023-04-30T15:47:12.691Z,10.98
2023-04-30T15:49:40.008Z,3.50
2023-04-30T15:52:07.229Z,5.88
2023-04-30T15:54:34.507Z,6.32
2023-04-30T15:57:02.950Z,6.22
2023-04-30T15:59:30.801Z,4.65
2023-04-30T16:01:58.139Z,6.88
2023-04-30T16:04:25.494Z,5.80
2023-04-30T16:06:53.535Z,7.03
2023-04-30T16:09:20.974Z,6.97
2023-04-30T16:11:48.361Z,3.80
2023-04-30T16:14:15.838Z,5.97
2023-04-30T16:16:43.136Z,6.63
2023-04-30T16:19:12.361Z,4.93
2023-04-30T16:24:07.192Z,5.05
2023-04-30T16:26:37.327Z,7.72
2023-04-30T16:29:05.969Z,5.90
2023-04-30T16:31:33.297Z,4.68
2023-04-30T16:34:01.106Z,4.85
2023-04-30T16:36:28.381Z,10.85
2023-04-30T16:38:56.156Z,7.95
2023-04-30T16:41:23.479Z,4.35
2023-04-30T16:43:50.781Z,4.55
2023-04-30T16:46:18.742Z,8.27
2023-04-30T16:48:46.015Z,5.25
2023-04-30T16:51:13.791Z,7.95
2023-04-30T16:53:41.249Z,7.68
2023-04-30T16:56:08.550Z,5.72
2023-04-30T16:58:35.891Z,8.45
2023-04-30T17:01:03.214Z,6.15
2023-04-30T17:03:34.813Z,5.22
2023-04-30T17:06:02.499Z,5.38
2023-04-30T17:08:29.761Z,6.65
2023-04-30T17:10:57.018Z,5.43
2023-04-30T17:13:24.404Z,4.95
2023-04-30T17:15:51.878Z,7.47
2023-04-30T17:18:19.347Z,5.60
2023-04-30T17:20:47.938Z,6.30
2023-04-30T17:23:15.495Z,4.60
2023-04-30T17:25:43.130Z,5.22
2023-04-30T17:28:10.475Z,5.47
2023-04-30T17:30:38.263Z,7.30
2023-04-30T17:33:06.068Z,105.47
2023-04-30T17:35:33.989Z,13.30
2023-04-30T17:38:01.484Z,9.50
2023-04-30T17:40:28.759Z,6.13
2023-04-30T17:42:56.171Z,18.23
2023-04-30T17:45:23.601Z,7.97
2023-04-30T17:47:51.044Z,9.43
2023-04-30T17:50:18.368Z,5.47
2023-04-30T17:52:45.794Z,6.72
2023-04-30T17:55:13.718Z,12.93
2023-04-30T17:57:41.115Z,9.38
2023-04-30T18:00:08.920Z,7.32
2023-04-30T18:02:43.325Z,6.85
2023-04-30T18:05:11.709Z,8.20
2023-04-30T18:07:39.453Z,6.17
2023-04-30T18:10:07.337Z,9.07
2023-04-30T18:12:34.653Z,8.38
2023-04-30T18:15:01.963Z,7.90
2023-04-30T18:17:29.270Z,7.65
2023-04-30T18:19:56.970Z,7.32
2023-04-30T18:22:24.550Z,8.77
2023-04-30T18:24:51.821Z,5.57
2023-04-30T18:27:19.742Z,7.22
2023-04-30T18:29:48.361Z,8.20
2023-04-30T18:32:15.923Z,5.43
2023-04-30T18:34:43.294Z,6.97
2023-04-30T18:37:10.990Z,5.90
2023-04-30T18:39:38.379Z,7.70
2023-04-30T18:42:05.830Z,7.10
2023-04-30T18:44:33.126Z,7.15
2023-04-30T18:47:00.434Z,5.88
2023-04-30T18:49:27.725Z,7.40
2023-04-30T18:51:55.434Z,7.30
2023-04-30T18:54:22.921Z,4.43
2023-04-30T18:56:50.551Z,6.05
2023-04-30T18:59:17.833Z,5.63
2023-04-30T19:01:45.144Z,4.97
2023-04-30T19:04:15.868Z,6.72
2023-04-30T19:06:44.520Z,7.63
2023-04-30T19:09:13.313Z,4.90
2023-04-30T19:11:41.212Z,7.68
2023-04-30T19:14:08.456Z,6.20
2023-04-30T19:16:35.829Z,6.43
2023-04-30T19:19:03.847Z,5.45
2023-04-30T19:21:32.267Z,6.30
2023-04-30T19:23:59.504Z,10.80
2023-04-30T19:26:27.862Z,7.78
2023-04-30T19:28:55.242Z,5.43
2023-04-30T19:31:22.856Z,9.23
2023-04-30T19:33:50.442Z,7.72
2023-04-30T19:36:18.079Z,7.47
2023-04-30T19:38:45.568Z,5.60
2023-04-30T19:41:12.910Z,6.72
2023-04-30T19:43:40.296Z,7.07
2023-04-30T19:46:07.756Z,8.23
2023-04-30T19:48:35.205Z,8.10
2023-04-30T19:51:04.761Z,7.25
2023-04-30T19:53:32.092Z,10.45
2023-04-30T19:56:01.575Z,9.55
2023-04-30T19:58:28.983Z,8.35
2023-04-30T20:00:56.464Z,8.73
2023-04-30T20:03:25.355Z,7.35
2023-04-30T20:05:53.125Z,7.32
2023-04-30T20:08:21.870Z,8.50
2023-04-30T20:10:50.203Z,8.20
2023-04-30T20:13:17.854Z,8.10
2023-04-30T20:15:45.464Z,7.90
2023-04-30T20:18:12.958Z,5.97
2023-04-30T20:20:40.272Z,7.18
2023-04-30T20:23:13.984Z,8.27
2023-04-30T20:25:42.966Z,10.75
2023-04-30T20:28:10.304Z,11.80
2023-04-30T20:30:37.616Z,9.35
2023-04-30T20:33:05.037Z,8.27
2023-04-30T20:35:32.468Z,6.53
2023-04-30T20:38:00.488Z,7.03
2023-04-30T20:40:28.052Z,7.82
2023-04-30T20:42:55.474Z,7.95
2023-04-30T20:45:23.719Z,8.35
2023-04-30T20:47:51.082Z,7.97
2023-04-30T20:50:20.358Z,7.80
2023-04-30T20:55:14.864Z,9.50
2023-04-30T20:57:42.224Z,6.97
2023-04-30T21:00:09.730Z,9.07
2023-04-30T21:02:37.229Z,7.97
2023-04-30T21:05:06.432Z,8.20
2023-04-30T21:10:08.348Z,8.07
2023-04-30T21:12:36.021Z,7.63
2023-04-30T21:15:03.545Z,9.50
2023-04-30T21:17:31.097Z,9.77
2023-04-30T21:19:59.046Z,7.50
2023-04-30T21:22:26.240Z,7.28
2023-04-30T21:24:53.850Z,6.85
2023-04-30T21:27:21.745Z,7.18
2023-04-30T21:29:49.077Z,6.47
2023-04-30T21:32:16.806Z,7.15
2023-04-30T21:34:44.646Z,6.22
2023-04-30T21:37:11.969Z,8.00
2023-04-30T21:39:39.240Z,6.70
2023-04-30T21:42:06.694Z,8.25
2023-04-30T21:44:33.995Z,9.48
2023-04-30T21:47:01.307Z,8.35
2023-04-30T21:49:28.603Z,8.75
2023-04-30T21:51:57.891Z,8.15
2023-04-30T21:54:25.250Z,9.35
2023-04-30T21:56:52.531Z,8.13
2023-04-30T21:59:19.773Z,8.45
2023-04-30T22:01:47.190Z,10.45
2023-04-30T22:04:16.126Z,8.48
2023-04-30T22:06:43.479Z,9.85
2023-04-30T22:09:10.864Z,7.97
2023-04-30T22:11:38.130Z,8.27
2023-04-30T22:14:05.425Z,11.30
2023-04-30T22:16:33.376Z,10.15
2023-04-30T22:19:00.696Z,11.55
2023-04-30T22:21:27.949Z,8.68
2023-04-30T22:23:55.212Z,9.00
2023-04-30T22:26:25.244Z,10.90
2023-04-30T22:28:52.756Z,8.75
2023-04-30T22:31:20.809Z,8.93
2023-04-30T22:33:48.161Z,9.55
2023-04-30T22:36:15.422Z,9.20
2023-04-30T22:38:42.652Z,10.68
2023-04-30T22:41:10.068Z,9.07
2023-04-30T22:43:37.499Z,10.63
2023-04-30T22:46:04.910Z,8.40
2023-04-30T22:48:32.129Z,10.07
2023-04-30T22:50:59.539Z,9.63
2023-04-30T22:53:26.908Z,9.32
2023-04-30T22:55:54.934Z,9.60
2023-04-30T22:58:22.396Z,8.82
2023-04-30T23:00:49.867Z,10.98
2023-04-30T23:03:17.570Z,9.43
2023-04-30T23:05:44.996Z,9.27
2023-04-30T23:08:12.600Z,9.45
2023-04-30T23:10:39.902Z,8.73
2023-04-30T23:13:07.404Z,8.82
2023-04-30T23:15:34.847Z,10.48
2023-04-30T23:18:02.267Z,9.70
2023-04-30T23:20:29.562Z,9.48
2023-04-30T23:22:57.028Z,10.95
2023-04-30T23:25:24.331Z,9.18
2023-04-30T23:27:51.730Z,9.00
2023-04-30T23:30:19.310Z,9.50
2023-04-30T23:32:46.617Z,8.60
2023-04-30T23:35:13.871Z,11.40
2023-04-30T23:37:41.161Z,9.02
2023-04-30T23:40:09.714Z,9.63
2023-04-30T23:42:37.041Z,9.85
2023-04-30T23:45:04.826Z,9.20
2023-04-30T23:47:32.326Z,8.95
2023-04-30T23:49:59.631Z,9.30
2023-04-30T23:52:26.941Z,9.07
2023-04-30T23:54:54.378Z,11.52
2023-04-30T23:57:21.623Z,9.63
2023-04-30T23:59:48.852Z,8.90
